Stanford, California
Current Conditions -  °F | °C
As of 11:56 PM on Thursday 18 Dec 2014 (Local Time) from KNUQ Reporting Station
Broken Clouds Broken Clouds  
Wind Chill: 12°   Ceiling: 10000
Heat Index: 12°   Visibility: 10mi
Dew Point:   Wind: 5mph
Humidity: 83%   Direction: 140°SE
Pressure: 30.19"   Gusts: NA
Location:  37.43°N, 122.16°W
Report Text: KNUQ 190756Z 14004KT 10SM FEW037 BKN100 12/09 A3019 RMK AO2 SLP225 T01220094 401720111
Loading
Personal Weather Stations






























Interactive Weather Map New forecast layout! Learn more

10-Day Weather Forecast

Advertisements
Track Severe Weather on mobile